sensor_id;sensor_type;location;lat;lon;timestamp;P1;durP1;ratioP1;P2;durP2;ratioP2
25213;SDS011;13160;51.834;4.706;2022-12-20T00:01:51;9.43;;;5.28;;
25213;SDS011;13160;51.834;4.706;2022-12-20T00:04:21;7.85;;;4.90;;
25213;SDS011;13160;51.834;4.706;2022-12-20T00:06:49;10.00;;;4.90;;
25213;SDS011;13160;51.834;4.706;2022-12-20T00:09:18;11.63;;;4.97;;
25213;SDS011;13160;51.834;4.706;2022-12-20T00:11:47;8.57;;;4.70;;
25213;SDS011;13160;51.834;4.706;2022-12-20T00:14:15;7.85;;;5.07;;
25213;SDS011;13160;51.834;4.706;2022-12-20T00:16:44;9.38;;;4.78;;
25213;SDS011;13160;51.834;4.706;2022-12-20T00:19:12;9.82;;;4.55;;
25213;SDS011;13160;51.834;4.706;2022-12-20T00:21:42;8.95;;;4.50;;
25213;SDS011;13160;51.834;4.706;2022-12-20T00:24:10;8.52;;;4.93;;
25213;SDS011;13160;51.834;4.706;2022-12-20T00:26:38;10.60;;;5.00;;
25213;SDS011;13160;51.834;4.706;2022-12-20T00:29:06;9.93;;;4.85;;
25213;SDS011;13160;51.834;4.706;2022-12-20T00:31:35;8.77;;;5.03;;
25213;SDS011;13160;51.834;4.706;2022-12-20T00:34:04;7.55;;;4.50;;
25213;SDS011;13160;51.834;4.706;2022-12-20T00:36:32;10.23;;;4.57;;
25213;SDS011;13160;51.834;4.706;2022-12-20T00:39:02;8.15;;;4.35;;
25213;SDS011;13160;51.834;4.706;2022-12-20T00:41:31;13.20;;;4.82;;
25213;SDS011;13160;51.834;4.706;2022-12-20T00:44:00;8.95;;;4.63;;
25213;SDS011;13160;51.834;4.706;2022-12-20T00:46:30;8.55;;;4.47;;
25213;SDS011;13160;51.834;4.706;2022-12-20T00:48:59;10.73;;;5.47;;
25213;SDS011;13160;51.834;4.706;2022-12-20T00:51:28;9.05;;;5.15;;
25213;SDS011;13160;51.834;4.706;2022-12-20T00:53:58;7.80;;;4.70;;
25213;SDS011;13160;51.834;4.706;2022-12-20T00:56:28;9.88;;;5.20;;
25213;SDS011;13160;51.834;4.706;2022-12-20T00:58:57;6.85;;;4.50;;
25213;SDS011;13160;51.834;4.706;2022-12-20T01:01:26;8.68;;;5.20;;
25213;SDS011;13160;51.834;4.706;2022-12-20T01:03:57;9.48;;;5.18;;
25213;SDS011;13160;51.834;4.706;2022-12-20T01:06:26;10.15;;;5.22;;
25213;SDS011;13160;51.834;4.706;2022-12-20T01:08:55;9.60;;;4.95;;
25213;SDS011;13160;51.834;4.706;2022-12-20T01:11:25;6.78;;;4.65;;
25213;SDS011;13160;51.834;4.706;2022-12-20T01:13:59;8.27;;;5.18;;
25213;SDS011;13160;51.834;4.706;2022-12-20T01:16:30;8.82;;;5.43;;
25213;SDS011;13160;51.834;4.706;2022-12-20T01:19:03;10.30;;;5.30;;
25213;SDS011;13160;51.834;4.706;2022-12-20T01:21:34;11.45;;;5.90;;
25213;SDS011;13160;51.834;4.706;2022-12-20T01:24:03;8.00;;;5.18;;
25213;SDS011;13160;51.834;4.706;2022-12-20T01:26:33;13.35;;;6.10;;
25213;SDS011;13160;51.834;4.706;2022-12-20T01:29:01;9.75;;;5.78;;
25213;SDS011;13160;51.834;4.706;2022-12-20T01:31:30;10.32;;;5.78;;
25213;SDS011;13160;51.834;4.706;2022-12-20T01:33:59;9.95;;;5.35;;
25213;SDS011;13160;51.834;4.706;2022-12-20T01:36:29;12.85;;;5.43;;
25213;SDS011;13160;51.834;4.706;2022-12-20T01:39:00;11.30;;;5.80;;
25213;SDS011;13160;51.834;4.706;2022-12-20T01:41:31;9.73;;;5.30;;
25213;SDS011;13160;51.834;4.706;2022-12-20T01:44:04;12.57;;;5.47;;
25213;SDS011;13160;51.834;4.706;2022-12-20T01:46:53;11.40;;;5.50;;
25213;SDS011;13160;51.834;4.706;2022-12-20T01:49:23;8.48;;;5.20;;
25213;SDS011;13160;51.834;4.706;2022-12-20T01:51:56;9.18;;;5.53;;
25213;SDS011;13160;51.834;4.706;2022-12-20T01:54:31;10.45;;;5.63;;
25213;SDS011;13160;51.834;4.706;2022-12-20T01:57:05;9.82;;;5.40;;
25213;SDS011;13160;51.834;4.706;2022-12-20T01:59:38;11.43;;;5.80;;
25213;SDS011;13160;51.834;4.706;2022-12-20T02:02:09;10.32;;;5.68;;
25213;SDS011;13160;51.834;4.706;2022-12-20T02:04:40;9.63;;;5.32;;
25213;SDS011;13160;51.834;4.706;2022-12-20T02:07:08;12.38;;;5.53;;
25213;SDS011;13160;51.834;4.706;2022-12-20T02:09:45;10.73;;;5.80;;
25213;SDS011;13160;51.834;4.706;2022-12-20T02:12:16;10.65;;;6.07;;
25213;SDS011;13160;51.834;4.706;2022-12-20T02:14:53;10.00;;;5.43;;
25213;SDS011;13160;51.834;4.706;2022-12-20T02:17:36;11.82;;;5.60;;
25213;SDS011;13160;51.834;4.706;2022-12-20T02:23:47;12.85;;;5.90;;
25213;SDS011;13160;51.834;4.706;2022-12-20T02:27:09;10.98;;;5.60;;
25213;SDS011;13160;51.834;4.706;2022-12-20T02:30:19;8.45;;;5.35;;
25213;SDS011;13160;51.834;4.706;2022-12-20T02:32:51;11.00;;;6.47;;
25213;SDS011;13160;51.834;4.706;2022-12-20T02:35:28;10.32;;;5.72;;
25213;SDS011;13160;51.834;4.706;2022-12-20T02:37:59;10.18;;;5.68;;
25213;SDS011;13160;51.834;4.706;2022-12-20T02:40:31;17.38;;;7.28;;
25213;SDS011;13160;51.834;4.706;2022-12-20T02:43:04;9.32;;;5.78;;
25213;SDS011;13160;51.834;4.706;2022-12-20T02:45:59;12.13;;;6.20;;
25213;SDS011;13160;51.834;4.706;2022-12-20T02:48:28;9.88;;;5.80;;
25213;SDS011;13160;51.834;4.706;2022-12-20T02:51:00;9.25;;;5.97;;
25213;SDS011;13160;51.834;4.706;2022-12-20T02:53:31;9.75;;;6.80;;
25213;SDS011;13160;51.834;4.706;2022-12-20T02:56:09;11.18;;;6.38;;
25213;SDS011;13160;51.834;4.706;2022-12-20T02:58:42;8.15;;;5.50;;
25213;SDS011;13160;51.834;4.706;2022-12-20T03:01:20;9.75;;;6.05;;
25213;SDS011;13160;51.834;4.706;2022-12-20T03:03:55;11.32;;;6.30;;
25213;SDS011;13160;51.834;4.706;2022-12-20T03:06:25;11.98;;;5.55;;
25213;SDS011;13160;51.834;4.706;2022-12-20T03:08:54;10.15;;;5.47;;
25213;SDS011;13160;51.834;4.706;2022-12-20T03:11:23;10.68;;;5.88;;
25213;SDS011;13160;51.834;4.706;2022-12-20T03:13:51;7.25;;;5.47;;
25213;SDS011;13160;51.834;4.706;2022-12-20T03:16:21;8.82;;;5.47;;
25213;SDS011;13160;51.834;4.706;2022-12-20T03:18:50;8.88;;;5.20;;
25213;SDS011;13160;51.834;4.706;2022-12-20T03:21:18;12.32;;;5.85;;
25213;SDS011;13160;51.834;4.706;2022-12-20T03:23:47;10.93;;;5.60;;
25213;SDS011;13160;51.834;4.706;2022-12-20T03:26:15;9.40;;;5.40;;
25213;SDS011;13160;51.834;4.706;2022-12-20T03:28:43;8.90;;;5.82;;
25213;SDS011;13160;51.834;4.706;2022-12-20T03:31:12;9.73;;;4.93;;
25213;SDS011;13160;51.834;4.706;2022-12-20T03:33:42;9.23;;;5.43;;
25213;SDS011;13160;51.834;4.706;2022-12-20T03:36:10;10.52;;;5.03;;
25213;SDS011;13160;51.834;4.706;2022-12-20T03:38:38;7.82;;;5.22;;
25213;SDS011;13160;51.834;4.706;2022-12-20T03:41:07;9.82;;;5.03;;
25213;SDS011;13160;51.834;4.706;2022-12-20T03:43:35;8.82;;;5.13;;
25213;SDS011;13160;51.834;4.706;2022-12-20T03:46:04;8.73;;;4.70;;
25213;SDS011;13160;51.834;4.706;2022-12-20T03:48:32;7.70;;;4.72;;
25213;SDS011;13160;51.834;4.706;2022-12-20T03:51:02;11.20;;;5.30;;
25213;SDS011;13160;51.834;4.706;2022-12-20T03:53:31;8.98;;;5.05;;
25213;SDS011;13160;51.834;4.706;2022-12-20T03:55:59;9.13;;;5.97;;
25213;SDS011;13160;51.834;4.706;2022-12-20T03:58:28;9.18;;;4.85;;
25213;SDS011;13160;51.834;4.706;2022-12-20T04:00:57;9.18;;;5.40;;
25213;SDS011;13160;51.834;4.706;2022-12-20T04:03:25;8.25;;;4.97;;
25213;SDS011;13160;51.834;4.706;2022-12-20T04:05:54;6.55;;;4.97;;
25213;SDS011;13160;51.834;4.706;2022-12-20T04:08:23;9.98;;;5.40;;
25213;SDS011;13160;51.834;4.706;2022-12-20T04:10:52;10.35;;;5.82;;
25213;SDS011;13160;51.834;4.706;2022-12-20T04:13:37;7.95;;;4.72;;
25213;SDS011;13160;51.834;4.706;2022-12-20T04:16:06;10.13;;;5.20;;
25213;SDS011;13160;51.834;4.706;2022-12-20T04:18:35;9.30;;;5.85;;
25213;SDS011;13160;51.834;4.706;2022-12-20T04:21:04;9.32;;;5.43;;
25213;SDS011;13160;51.834;4.706;2022-12-20T04:23:35;9.65;;;5.72;;
25213;SDS011;13160;51.834;4.706;2022-12-20T04:26:08;11.85;;;5.75;;
25213;SDS011;13160;51.834;4.706;2022-12-20T04:28:38;10.25;;;6.00;;
25213;SDS011;13160;51.834;4.706;2022-12-20T04:31:07;12.32;;;6.50;;
25213;SDS011;13160;51.834;4.706;2022-12-20T04:33:36;9.43;;;5.90;;
25213;SDS011;13160;51.834;4.706;2022-12-20T04:36:05;12.23;;;6.50;;
25213;SDS011;13160;51.834;4.706;2022-12-20T04:38:35;9.32;;;6.55;;
25213;SDS011;13160;51.834;4.706;2022-12-20T04:41:04;11.65;;;6.35;;
25213;SDS011;13160;51.834;4.706;2022-12-20T04:43:33;11.05;;;6.85;;
25213;SDS011;13160;51.834;4.706;2022-12-20T04:46:01;10.93;;;7.53;;
25213;SDS011;13160;51.834;4.706;2022-12-20T04:48:29;15.68;;;7.47;;
25213;SDS011;13160;51.834;4.706;2022-12-20T04:51:17;12.90;;;7.38;;
25213;SDS011;13160;51.834;4.706;2022-12-20T04:53:47;12.45;;;7.28;;
25213;SDS011;13160;51.834;4.706;2022-12-20T04:56:15;9.20;;;7.03;;
25213;SDS011;13160;51.834;4.706;2022-12-20T04:58:47;11.35;;;7.43;;
25213;SDS011;13160;51.834;4.706;2022-12-20T05:01:17;9.60;;;6.85;;
25213;SDS011;13160;51.834;4.706;2022-12-20T05:03:46;11.10;;;7.22;;
25213;SDS011;13160;51.834;4.706;2022-12-20T05:06:16;11.57;;;6.70;;
25213;SDS011;13160;51.834;4.706;2022-12-20T05:08:44;11.10;;;6.43;;
25213;SDS011;13160;51.834;4.706;2022-12-20T05:11:15;10.93;;;6.68;;
25213;SDS011;13160;51.834;4.706;2022-12-20T05:13:43;11.05;;;7.18;;
25213;SDS011;13160;51.834;4.706;2022-12-20T05:16:11;10.30;;;6.80;;
25213;SDS011;13160;51.834;4.706;2022-12-20T05:18:40;11.55;;;7.20;;
25213;SDS011;13160;51.834;4.706;2022-12-20T05:21:14;12.93;;;6.93;;
25213;SDS011;13160;51.834;4.706;2022-12-20T05:24:01;13.02;;;7.03;;
25213;SDS011;13160;51.834;4.706;2022-12-20T05:26:48;9.48;;;6.32;;
25213;SDS011;13160;51.834;4.706;2022-12-20T05:29:16;12.60;;;6.65;;
25213;SDS011;13160;51.834;4.706;2022-12-20T05:31:44;11.18;;;6.90;;
25213;SDS011;13160;51.834;4.706;2022-12-20T05:34:13;11.48;;;6.60;;
25213;SDS011;13160;51.834;4.706;2022-12-20T05:36:42;13.52;;;6.80;;
25213;SDS011;13160;51.834;4.706;2022-12-20T05:39:10;9.75;;;6.75;;
25213;SDS011;13160;51.834;4.706;2022-12-20T05:41:40;11.68;;;7.07;;
25213;SDS011;13160;51.834;4.706;2022-12-20T05:44:09;10.10;;;6.47;;
25213;SDS011;13160;51.834;4.706;2022-12-20T05:46:41;11.88;;;7.03;;
25213;SDS011;13160;51.834;4.706;2022-12-20T05:49:09;12.48;;;6.72;;
25213;SDS011;13160;51.834;4.706;2022-12-20T05:51:38;11.05;;;6.40;;
25213;SDS011;13160;51.834;4.706;2022-12-20T05:54:07;11.77;;;6.68;;
25213;SDS011;13160;51.834;4.706;2022-12-20T05:56:36;13.00;;;6.03;;
25213;SDS011;13160;51.834;4.706;2022-12-20T05:59:04;10.57;;;5.97;;
25213;SDS011;13160;51.834;4.706;2022-12-20T06:01:34;8.55;;;5.75;;
25213;SDS011;13160;51.834;4.706;2022-12-20T06:04:03;11.48;;;5.70;;
25213;SDS011;13160;51.834;4.706;2022-12-20T06:06:31;10.30;;;5.80;;
25213;SDS011;13160;51.834;4.706;2022-12-20T06:09:00;11.68;;;6.03;;
25213;SDS011;13160;51.834;4.706;2022-12-20T06:11:28;7.65;;;5.22;;
25213;SDS011;13160;51.834;4.706;2022-12-20T06:13:56;12.32;;;5.97;;
25213;SDS011;13160;51.834;4.706;2022-12-20T06:16:25;12.40;;;5.75;;
25213;SDS011;13160;51.834;4.706;2022-12-20T06:18:55;10.10;;;5.38;;
25213;SDS011;13160;51.834;4.706;2022-12-20T06:21:23;11.00;;;5.13;;
25213;SDS011;13160;51.834;4.706;2022-12-20T06:23:53;8.30;;;4.53;;
25213;SDS011;13160;51.834;4.706;2022-12-20T06:26:21;9.73;;;5.03;;
25213;SDS011;13160;51.834;4.706;2022-12-20T06:28:50;10.13;;;5.20;;
25213;SDS011;13160;51.834;4.706;2022-12-20T06:31:20;10.63;;;5.85;;
25213;SDS011;13160;51.834;4.706;2022-12-20T06:33:48;8.80;;;5.30;;
25213;SDS011;13160;51.834;4.706;2022-12-20T06:36:17;7.75;;;4.78;;
25213;SDS011;13160;51.834;4.706;2022-12-20T06:38:46;9.93;;;4.78;;
25213;SDS011;13160;51.834;4.706;2022-12-20T06:41:14;8.40;;;4.50;;
25213;SDS011;13160;51.834;4.706;2022-12-20T06:43:42;9.38;;;5.10;;
25213;SDS011;13160;51.834;4.706;2022-12-20T06:46:11;8.35;;;4.70;;
25213;SDS011;13160;51.834;4.706;2022-12-20T06:48:42;8.85;;;4.68;;
25213;SDS011;13160;51.834;4.706;2022-12-20T06:51:10;11.63;;;4.93;;
25213;SDS011;13160;51.834;4.706;2022-12-20T06:53:40;7.65;;;4.28;;
25213;SDS011;13160;51.834;4.706;2022-12-20T06:56:08;7.43;;;4.40;;
25213;SDS011;13160;51.834;4.706;2022-12-20T06:58:37;10.55;;;4.60;;
25213;SDS011;13160;51.834;4.706;2022-12-20T07:01:05;10.13;;;4.78;;
25213;SDS011;13160;51.834;4.706;2022-12-20T07:03:34;8.52;;;5.10;;
25213;SDS011;13160;51.834;4.706;2022-12-20T07:06:02;10.68;;;4.95;;
25213;SDS011;13160;51.834;4.706;2022-12-20T07:08:31;8.30;;;4.10;;
25213;SDS011;13160;51.834;4.706;2022-12-20T07:11:03;8.85;;;4.07;;
25213;SDS011;13160;51.834;4.706;2022-12-20T07:13:33;8.65;;;4.20;;
25213;SDS011;13160;51.834;4.706;2022-12-20T07:16:02;9.68;;;4.18;;
25213;SDS011;13160;51.834;4.706;2022-12-20T07:18:31;8.50;;;4.28;;
25213;SDS011;13160;51.834;4.706;2022-12-20T07:21:03;8.63;;;4.07;;
25213;SDS011;13160;51.834;4.706;2022-12-20T07:23:32;6.55;;;4.03;;
25213;SDS011;13160;51.834;4.706;2022-12-20T07:26:05;8.77;;;4.00;;
25213;SDS011;13160;51.834;4.706;2022-12-20T07:28:35;10.82;;;4.25;;
25213;SDS011;13160;51.834;4.706;2022-12-20T07:31:07;6.47;;;4.43;;
25213;SDS011;13160;51.834;4.706;2022-12-20T07:33:35;8.73;;;4.25;;
25213;SDS011;13160;51.834;4.706;2022-12-20T07:36:05;7.07;;;4.70;;
25213;SDS011;13160;51.834;4.706;2022-12-20T07:38:37;8.25;;;4.13;;
25213;SDS011;13160;51.834;4.706;2022-12-20T07:41:08;8.00;;;4.30;;
25213;SDS011;13160;51.834;4.706;2022-12-20T07:43:38;8.20;;;4.28;;
25213;SDS011;13160;51.834;4.706;2022-12-20T07:46:09;8.25;;;4.57;;
25213;SDS011;13160;51.834;4.706;2022-12-20T07:48:43;8.23;;;4.10;;
25213;SDS011;13160;51.834;4.706;2022-12-20T07:51:12;9.90;;;4.40;;
25213;SDS011;13160;51.834;4.706;2022-12-20T07:53:45;6.78;;;4.65;;
25213;SDS011;13160;51.834;4.706;2022-12-20T07:56:20;8.57;;;4.60;;
25213;SDS011;13160;51.834;4.706;2022-12-20T07:58:49;8.70;;;4.97;;
25213;SDS011;13160;51.834;4.706;2022-12-20T08:01:23;10.13;;;4.78;;
25213;SDS011;13160;51.834;4.706;2022-12-20T08:03:54;9.27;;;5.05;;
25213;SDS011;13160;51.834;4.706;2022-12-20T08:06:26;9.20;;;4.50;;
25213;SDS011;13160;51.834;4.706;2022-12-20T08:08:56;9.38;;;4.68;;
25213;SDS011;13160;51.834;4.706;2022-12-20T08:11:31;9.32;;;4.95;;
25213;SDS011;13160;51.834;4.706;2022-12-20T08:14:03;9.32;;;4.65;;
25213;SDS011;13160;51.834;4.706;2022-12-20T08:16:33;6.78;;;4.35;;
25213;SDS011;13160;51.834;4.706;2022-12-20T08:19:02;9.55;;;4.55;;
25213;SDS011;13160;51.834;4.706;2022-12-20T08:21:30;9.57;;;4.93;;
25213;SDS011;13160;51.834;4.706;2022-12-20T08:23:58;8.93;;;4.20;;
25213;SDS011;13160;51.834;4.706;2022-12-20T08:26:26;10.02;;;4.90;;
25213;SDS011;13160;51.834;4.706;2022-12-20T08:28:56;10.88;;;5.20;;
25213;SDS011;13160;51.834;4.706;2022-12-20T08:31:24;8.70;;;4.55;;
25213;SDS011;13160;51.834;4.706;2022-12-20T08:33:54;8.55;;;4.65;;
25213;SDS011;13160;51.834;4.706;2022-12-20T08:36:22;9.57;;;4.50;;
25213;SDS011;13160;51.834;4.706;2022-12-20T08:38:51;7.85;;;4.50;;
25213;SDS011;13160;51.834;4.706;2022-12-20T08:41:19;10.25;;;4.55;;
25213;SDS011;13160;51.834;4.706;2022-12-20T08:43:47;9.85;;;4.78;;
25213;SDS011;13160;51.834;4.706;2022-12-20T08:46:17;9.70;;;4.78;;
25213;SDS011;13160;51.834;4.706;2022-12-20T08:48:45;10.50;;;4.60;;
25213;SDS011;13160;51.834;4.706;2022-12-20T08:51:14;8.63;;;4.43;;
25213;SDS011;13160;51.834;4.706;2022-12-20T08:53:42;10.98;;;4.80;;
25213;SDS011;13160;51.834;4.706;2022-12-20T08:56:11;8.90;;;4.63;;
25213;SDS011;13160;51.834;4.706;2022-12-20T08:58:43;10.70;;;4.78;;
25213;SDS011;13160;51.834;4.706;2022-12-20T09:01:13;10.25;;;4.82;;
25213;SDS011;13160;51.834;4.706;2022-12-20T09:03:45;9.05;;;4.65;;
25213;SDS011;13160;51.834;4.706;2022-12-20T09:06:15;8.82;;;4.88;;
25213;SDS011;13160;51.834;4.706;2022-12-20T09:08:45;8.70;;;4.55;;
25213;SDS011;13160;51.834;4.706;2022-12-20T09:11:15;10.52;;;4.75;;
25213;SDS011;13160;51.834;4.706;2022-12-20T09:13:47;11.57;;;5.20;;
25213;SDS011;13160;51.834;4.706;2022-12-20T09:16:19;11.75;;;5.30;;
25213;SDS011;13160;51.834;4.706;2022-12-20T09:18:51;10.25;;;4.63;;
25213;SDS011;13160;51.834;4.706;2022-12-20T09:21:30;9.80;;;4.93;;
25213;SDS011;13160;51.834;4.706;2022-12-20T09:23:59;11.18;;;5.22;;
25213;SDS011;13160;51.834;4.706;2022-12-20T09:26:27;13.32;;;5.28;;
25213;SDS011;13160;51.834;4.706;2022-12-20T09:28:56;9.65;;;5.43;;
25213;SDS011;13160;51.834;4.706;2022-12-20T09:31:27;10.60;;;5.30;;
25213;SDS011;13160;51.834;4.706;2022-12-20T09:33:57;11.13;;;5.38;;
25213;SDS011;13160;51.834;4.706;2022-12-20T09:36:27;13.35;;;5.93;;
25213;SDS011;13160;51.834;4.706;2022-12-20T09:38:57;12.32;;;5.30;;
25213;SDS011;13160;51.834;4.706;2022-12-20T09:41:28;14.23;;;5.63;;
25213;SDS011;13160;51.834;4.706;2022-12-20T09:44:04;13.32;;;5.85;;
25213;SDS011;13160;51.834;4.706;2022-12-20T09:46:40;12.43;;;5.43;;
25213;SDS011;13160;51.834;4.706;2022-12-20T09:49:14;9.32;;;5.38;;
25213;SDS011;13160;51.834;4.706;2022-12-20T09:51:50;14.43;;;5.45;;
25213;SDS011;13160;51.834;4.706;2022-12-20T09:54:33;9.60;;;5.22;;
25213;SDS011;13160;51.834;4.706;2022-12-20T09:57:16;11.70;;;5.70;;
25213;SDS011;13160;51.834;4.706;2022-12-20T09:59:54;15.35;;;5.68;;
25213;SDS011;13160;51.834;4.706;2022-12-20T10:02:24;11.85;;;5.20;;
25213;SDS011;13160;51.834;4.706;2022-12-20T10:05:19;10.45;;;5.32;;
25213;SDS011;13160;51.834;4.706;2022-12-20T10:08:07;10.27;;;5.78;;
25213;SDS011;13160;51.834;4.706;2022-12-20T10:10:48;11.25;;;5.53;;
25213;SDS011;13160;51.834;4.706;2022-12-20T10:13:34;12.73;;;6.15;;
25213;SDS011;13160;51.834;4.706;2022-12-20T10:16:25;9.93;;;5.55;;
25213;SDS011;13160;51.834;4.706;2022-12-20T10:22:11;11.30;;;6.38;;
25213;SDS011;13160;51.834;4.706;2022-12-20T10:24:47;10.10;;;6.03;;
25213;SDS011;13160;51.834;4.706;2022-12-20T10:27:22;10.88;;;5.93;;
25213;SDS011;13160;51.834;4.706;2022-12-20T10:29:51;12.88;;;6.28;;
25213;SDS011;13160;51.834;4.706;2022-12-20T10:32:20;14.85;;;6.78;;
25213;SDS011;13160;51.834;4.706;2022-12-20T10:34:54;12.85;;;6.53;;
25213;SDS011;13160;51.834;4.706;2022-12-20T10:37:29;12.13;;;6.43;;
25213;SDS011;13160;51.834;4.706;2022-12-20T10:39:58;13.73;;;6.70;;
25213;SDS011;13160;51.834;4.706;2022-12-20T10:42:35;13.75;;;6.97;;
25213;SDS011;13160;51.834;4.706;2022-12-20T10:45:09;11.68;;;7.00;;
25213;SDS011;13160;51.834;4.706;2022-12-20T10:48:03;9.90;;;6.97;;
25213;SDS011;13160;51.834;4.706;2022-12-20T10:50:33;12.05;;;7.07;;
25213;SDS011;13160;51.834;4.706;2022-12-20T10:53:18;12.25;;;6.85;;
25213;SDS011;13160;51.834;4.706;2022-12-20T10:55:54;10.50;;;6.72;;
25213;SDS011;13160;51.834;4.706;2022-12-20T10:58:39;11.75;;;6.93;;
25213;SDS011;13160;51.834;4.706;2022-12-20T11:01:10;11.75;;;7.63;;
25213;SDS011;13160;51.834;4.706;2022-12-20T11:03:50;10.10;;;7.10;;
25213;SDS011;13160;51.834;4.706;2022-12-20T11:06:22;12.35;;;7.18;;
25213;SDS011;13160;51.834;4.706;2022-12-20T11:12:02;15.98;;;8.10;;
25213;SDS011;13160;51.834;4.706;2022-12-20T11:14:34;12.60;;;8.07;;
25213;SDS011;13160;51.834;4.706;2022-12-20T11:17:16;13.02;;;8.35;;
25213;SDS011;13160;51.834;4.706;2022-12-20T11:19:54;12.07;;;7.95;;
25213;SDS011;13160;51.834;4.706;2022-12-20T11:22:37;15.45;;;8.60;;
25213;SDS011;13160;51.834;4.706;2022-12-20T11:25:27;14.38;;;8.80;;
25213;SDS011;13160;51.834;4.706;2022-12-20T11:28:13;15.75;;;9.15;;
25213;SDS011;13160;51.834;4.706;2022-12-20T11:31:02;13.88;;;8.75;;
25213;SDS011;13160;51.834;4.706;2022-12-20T11:33:52;14.07;;;8.63;;
25213;SDS011;13160;51.834;4.706;2022-12-20T11:36:35;15.30;;;9.77;;
25213;SDS011;13160;51.834;4.706;2022-12-20T11:39:29;15.38;;;9.77;;
25213;SDS011;13160;51.834;4.706;2022-12-20T11:42:08;16.23;;;10.70;;
25213;SDS011;13160;51.834;4.706;2022-12-20T11:44:50;15.65;;;10.38;;
25213;SDS011;13160;51.834;4.706;2022-12-20T11:47:48;15.85;;;10.38;;
25213;SDS011;13160;51.834;4.706;2022-12-20T11:50:49;18.02;;;10.80;;
25213;SDS011;13160;51.834;4.706;2022-12-20T11:53:31;18.20;;;11.15;;
25213;SDS011;13160;51.834;4.706;2022-12-20T11:56:07;16.48;;;11.40;;
25213;SDS011;13160;51.834;4.706;2022-12-20T11:58:49;14.63;;;11.38;;
25213;SDS011;13160;51.834;4.706;2022-12-20T12:01:23;16.63;;;12.02;;
25213;SDS011;13160;51.834;4.706;2022-12-20T12:04:02;17.08;;;12.55;;
25213;SDS011;13160;51.834;4.706;2022-12-20T12:06:40;17.25;;;12.50;;
25213;SDS011;13160;51.834;4.706;2022-12-20T12:09:14;15.50;;;12.55;;
25213;SDS011;13160;51.834;4.706;2022-12-20T12:11:51;14.45;;;12.27;;
25213;SDS011;13160;51.834;4.706;2022-12-20T12:14:41;17.33;;;13.27;;
25213;SDS011;13160;51.834;4.706;2022-12-20T12:17:17;16.63;;;12.88;;
25213;SDS011;13160;51.834;4.706;2022-12-20T12:19:53;17.42;;;13.05;;
25213;SDS011;13160;51.834;4.706;2022-12-20T12:22:30;18.85;;;13.38;;
25213;SDS011;13160;51.834;4.706;2022-12-20T12:25:03;16.55;;;13.27;;
25213;SDS011;13160;51.834;4.706;2022-12-20T12:27:40;16.67;;;13.73;;
25213;SDS011;13160;51.834;4.706;2022-12-20T12:30:12;18.95;;;13.07;;
25213;SDS011;13160;51.834;4.706;2022-12-20T12:32:45;18.70;;;13.95;;
25213;SDS011;13160;51.834;4.706;2022-12-20T12:35:42;17.05;;;13.38;;
25213;SDS011;13160;51.834;4.706;2022-12-20T12:38:39;19.67;;;13.13;;
25213;SDS011;13160;51.834;4.706;2022-12-20T12:44:51;16.88;;;12.82;;
25213;SDS011;13160;51.834;4.706;2022-12-20T12:47:33;16.67;;;13.20;;
25213;SDS011;13160;51.834;4.706;2022-12-20T12:50:07;17.23;;;12.38;;
25213;SDS011;13160;51.834;4.706;2022-12-20T12:52:50;16.17;;;12.38;;
25213;SDS011;13160;51.834;4.706;2022-12-20T12:55:34;15.68;;;13.05;;
25213;SDS011;13160;51.834;4.706;2022-12-20T13:01:28;21.98;;;13.85;;
25213;SDS011;13160;51.834;4.706;2022-12-20T13:04:26;14.82;;;12.63;;
25213;SDS011;13160;51.834;4.706;2022-12-20T13:07:00;17.70;;;13.75;;
25213;SDS011;13160;51.834;4.706;2022-12-20T13:09:50;16.92;;;13.65;;
25213;SDS011;13160;51.834;4.706;2022-12-20T13:18:37;18.73;;;14.15;;
25213;SDS011;13160;51.834;4.706;2022-12-20T13:21:35;17.00;;;14.38;;
25213;SDS011;13160;51.834;4.706;2022-12-20T13:27:28;17.67;;;15.30;;
25213;SDS011;13160;51.834;4.706;2022-12-20T13:39:02;21.08;;;15.23;;
25213;SDS011;13160;51.834;4.706;2022-12-20T13:42:05;20.27;;;16.05;;
25213;SDS011;13160;51.834;4.706;2022-12-20T13:44:52;20.60;;;16.63;;
25213;SDS011;13160;51.834;4.706;2022-12-20T13:47:25;23.63;;;16.75;;
25213;SDS011;13160;51.834;4.706;2022-12-20T13:53:01;18.40;;;16.48;;
25213;SDS011;13160;51.834;4.706;2022-12-20T13:55:33;23.73;;;17.17;;
25213;SDS011;13160;51.834;4.706;2022-12-20T13:58:05;22.13;;;16.63;;
25213;SDS011;13160;51.834;4.706;2022-12-20T14:00:38;20.33;;;18.10;;
25213;SDS011;13160;51.834;4.706;2022-12-20T14:03:16;22.48;;;17.67;;
25213;SDS011;13160;51.834;4.706;2022-12-20T14:05:50;21.10;;;17.25;;
25213;SDS011;13160;51.834;4.706;2022-12-20T14:08:24;22.42;;;17.73;;
25213;SDS011;13160;51.834;4.706;2022-12-20T14:11:07;19.05;;;16.98;;
25213;SDS011;13160;51.834;4.706;2022-12-20T14:13:37;22.73;;;17.90;;
25213;SDS011;13160;51.834;4.706;2022-12-20T14:16:07;20.40;;;17.85;;
25213;SDS011;13160;51.834;4.706;2022-12-20T14:18:46;21.35;;;16.95;;
25213;SDS011;13160;51.834;4.706;2022-12-20T14:21:15;21.13;;;17.45;;
25213;SDS011;13160;51.834;4.706;2022-12-20T14:23:45;23.88;;;18.20;;
25213;SDS011;13160;51.834;4.706;2022-12-20T14:26:18;20.30;;;17.00;;
25213;SDS011;13160;51.834;4.706;2022-12-20T14:28:51;19.52;;;17.42;;
25213;SDS011;13160;51.834;4.706;2022-12-20T14:31:22;21.40;;;17.52;;
25213;SDS011;13160;51.834;4.706;2022-12-20T14:34:01;20.60;;;16.38;;
25213;SDS011;13160;51.834;4.706;2022-12-20T14:36:31;19.45;;;16.00;;
25213;SDS011;13160;51.834;4.706;2022-12-20T14:39:09;18.10;;;15.65;;
25213;SDS011;13160;51.834;4.706;2022-12-20T14:41:56;18.45;;;15.70;;
25213;SDS011;13160;51.834;4.706;2022-12-20T14:44:26;18.38;;;15.40;;
25213;SDS011;13160;51.834;4.706;2022-12-20T14:46:56;19.83;;;16.08;;
25213;SDS011;13160;51.834;4.706;2022-12-20T14:49:27;17.95;;;15.02;;
25213;SDS011;13160;51.834;4.706;2022-12-20T14:52:05;19.35;;;15.40;;
25213;SDS011;13160;51.834;4.706;2022-12-20T14:54:41;17.58;;;15.68;;
25213;SDS011;13160;51.834;4.706;2022-12-20T14:57:38;16.67;;;14.90;;
25213;SDS011;13160;51.834;4.706;2022-12-20T15:00:18;16.20;;;14.25;;
25213;SDS011;13160;51.834;4.706;2022-12-20T15:02:55;18.05;;;14.85;;
25213;SDS011;13160;51.834;4.706;2022-12-20T15:05:35;15.93;;;14.23;;
25213;SDS011;13160;51.834;4.706;2022-12-20T15:08:14;19.73;;;14.52;;
25213;SDS011;13160;51.834;4.706;2022-12-20T15:10:52;15.73;;;13.65;;
25213;SDS011;13160;51.834;4.706;2022-12-20T15:13:31;18.67;;;14.52;;
25213;SDS011;13160;51.834;4.706;2022-12-20T15:16:02;18.45;;;14.52;;
25213;SDS011;13160;51.834;4.706;2022-12-20T15:18:32;16.75;;;14.52;;
25213;SDS011;13160;51.834;4.706;2022-12-20T15:21:02;19.02;;;14.43;;
25213;SDS011;13160;51.834;4.706;2022-12-20T15:23:32;16.48;;;14.40;;
25213;SDS011;13160;51.834;4.706;2022-12-20T15:26:01;16.08;;;13.27;;
25213;SDS011;13160;51.834;4.706;2022-12-20T15:28:31;16.23;;;13.90;;
25213;SDS011;13160;51.834;4.706;2022-12-20T15:30:59;18.15;;;16.25;;
25213;SDS011;13160;51.834;4.706;2022-12-20T15:33:30;16.98;;;14.30;;
25213;SDS011;13160;51.834;4.706;2022-12-20T15:36:01;18.65;;;16.20;;
25213;SDS011;13160;51.834;4.706;2022-12-20T15:38:29;20.17;;;14.73;;
25213;SDS011;13160;51.834;4.706;2022-12-20T15:41:18;15.80;;;14.15;;
25213;SDS011;13160;51.834;4.706;2022-12-20T15:43:51;16.58;;;14.15;;
25213;SDS011;13160;51.834;4.706;2022-12-20T15:46:22;16.65;;;14.82;;
25213;SDS011;13160;51.834;4.706;2022-12-20T15:48:51;18.88;;;16.88;;
25213;SDS011;13160;51.834;4.706;2022-12-20T15:51:22;15.52;;;13.65;;